Time;durP1;ratioP1;P1;durP2;ratioP2;P2;SDS_P1;SDS_P2;PMS_P1;PMS_P2;Temp;Humidity;BMP_temperature;BMP_pressure;BME280_temperature;BME280_humidity;BME280_pressure;Samples;Min_cycle;Max_cycle;Signal;HPM_P1;HPM_P2
2021/03/19 00:00:37;;;;;;;15.85;10.50;;;;;;;-0.57;71.08;98834.98;1783720;79;21073;-56
2021/03/19 00:03:04;;;;;;;16.77;10.58;;;;;;;-0.58;70.90;98828.12;1754561;80;21465;-56
2021/03/19 00:05:32;;;;;;;21.02;11.40;;;;;;;-0.56;71.03;98826.69;1784615;78;20990;-56
2021/03/19 00:07:59;;;;;;;13.03;9.28;;;;;;;-0.55;70.98;98829.67;1765632;78;21108;-56
2021/03/19 00:10:32;;;;;;;12.25;9.33;;;;;;;-0.53;70.95;98830.38;1784235;79;21198;-56
2021/03/19 00:13:05;;;;;;;12.78;7.78;;;;;;;-0.54;70.73;98830.84;1775089;79;21080;-56
2021/03/19 00:15:34;;;;;;;13.30;8.83;;;;;;;-0.54;70.81;98830.84;1769367;79;20990;-56
2021/03/19 00:18:02;;;;;;;13.13;7.67;;;;;;;-0.56;70.71;98827.52;1773392;78;21156;-56
2021/03/19 00:20:38;;;;;;;14.35;8.20;;;;;;;-0.58;70.69;98829.89;1765767;79;21116;-57
2021/03/19 00:23:06;;;;;;;15.15;7.92;;;;;;;-0.60;70.82;98828.72;1773007;79;22338;-56
2021/03/19 00:25:34;;;;;;;14.05;8.93;;;;;;;-0.64;71.03;98829.41;1796284;79;21595;-55
2021/03/19 00:28:02;;;;;;;15.35;8.50;;;;;;;-0.64;71.19;98818.13;1795288;78;21018;-56
2021/03/19 00:30:30;;;;;;;15.98;9.05;;;;;;;-0.59;71.33;98822.52;1772703;78;21132;-56
2021/03/19 00:32:58;;;;;;;14.05;8.88;;;;;;;-0.55;71.33;98817.91;1765884;79;21038;-56
2021/03/19 00:35:26;;;;;;;16.15;10.70;;;;;;;-0.51;71.28;98821.47;1787606;78;21361;-56
2021/03/19 00:37:55;;;;;;;19.05;10.58;;;;;;;-0.46;71.20;98821.95;1776460;78;21085;-56
2021/03/19 00:40:22;;;;;;;16.07;10.08;;;;;;;-0.43;71.05;98815.19;1787504;78;20994;-55
2021/03/19 00:42:50;;;;;;;13.85;10.30;;;;;;;-0.39;70.99;98815.30;1765896;79;21053;-55
2021/03/19 00:45:18;;;;;;;15.03;10.60;;;;;;;-0.36;70.89;98812.45;1765842;78;20974;-55
2021/03/19 00:47:49;;;;;;;15.18;10.08;;;;;;;-0.33;70.82;98806.98;1770171;78;21206;-55
2021/03/19 00:50:24;;;;;;;23.67;12.53;;;;;;;-0.30;70.99;98808.53;1802031;79;21463;-55
2021/03/19 00:52:51;;;;;;;15.03;11.05;;;;;;;-0.34;70.93;98807.93;1799754;79;21126;-56
2021/03/19 00:55:20;;;;;;;17.02;11.93;;;;;;;-0.38;71.07;98810.91;1805326;79;20930;-56
2021/03/19 00:57:48;;;;;;;15.93;10.93;;;;;;;-0.39;71.27;98809.26;1803213;79;21142;-55
2021/03/19 01:00:17;;;;;;;14.50;9.45;;;;;;;-0.38;71.34;98807.82;1798034;79;21355;-55
2021/03/19 01:02:45;;;;;;;9.70;7.83;;;;;;;-0.36;71.67;98807.22;1803250;79;21116;-55
2021/03/19 01:05:23;;;;;;;10.38;6.87;;;;;;;-0.37;71.81;98799.05;1795397;79;21102;-55
2021/03/19 01:07:51;;;;;;;9.93;6.20;;;;;;;-0.37;71.87;98808.19;1783433;79;21131;-56
2021/03/19 01:10:28;;;;;;;8.08;5.95;;;;;;;-0.37;72.05;98803.44;1789329;79;21091;-56
2021/03/19 01:12:56;;;;;;;7.30;5.55;;;;;;;-0.37;72.03;98802.97;1787141;79;21411;-56
2021/03/19 01:15:24;;;;;;;6.70;4.85;;;;;;;-0.35;72.08;98801.53;1796123;77;21111;-56
2021/03/19 01:17:52;;;;;;;6.17;4.25;;;;;;;-0.33;72.28;98799.62;1797821;79;20961;-56
2021/03/19 01:20:21;;;;;;;9.33;4.87;;;;;;;-0.32;72.22;98797.37;1787022;77;21135;-56
2021/03/19 01:22:49;;;;;;;7.58;5.60;;;;;;;-0.31;72.12;98803.77;1782468;79;21086;-55
2021/03/19 01:25:19;;;;;;;9.90;6.20;;;;;;;-0.33;72.21;98794.39;1789639;79;21198;-56
2021/03/19 01:27:46;;;;;;;7.50;4.93;;;;;;;-0.32;72.27;98798.21;1784777;78;21108;-55
2021/03/19 01:30:17;;;;;;;8.70;4.15;;;;;;;-0.30;72.28;98798.08;1787034;79;20985;-55
2021/03/19 01:32:46;;;;;;;6.17;4.60;;;;;;;-0.30;72.28;98798.92;1786423;79;21127;-55
2021/03/19 01:35:37;;;;;;;10.20;5.20;;;;;;;-0.28;72.42;98800.09;1790595;79;21104;-55
2021/03/19 01:38:06;;;;;;;6.33;4.97;;;;;;;-0.27;72.41;98803.08;1754543;80;20985;-55
2021/03/19 01:40:47;;;;;;;6.90;5.22;;;;;;;-0.27;72.24;98801.30;1754990;80;21604;-55
2021/03/19 01:43:45;;;;;;;6.90;5.10;;;;;;;-0.28;72.28;98797.48;1753247;80;21503;-54
2021/03/19 01:47:10;;;;;;;7.42;5.37;;;;;;;-0.27;72.47;98800.46;1750719;80;21602;-55
2021/03/19 01:50:35;;;;;;;7.10;4.70;;;;;;;-0.29;72.53;98799.28;1750392;80;21569;-55
2021/03/19 01:53:59;;;;;;;7.40;5.33;;;;;;;-0.31;72.52;98801.16;1754294;80;21370;-56
2021/03/19 01:57:23;;;;;;;6.58;4.90;;;;;;;-0.37;72.46;98804.73;1752191;80;21127;-54
2021/03/19 02:00:47;;;;;;;6.10;4.12;;;;;;;-0.41;72.44;98799.38;1752627;80;21005;-57
2021/03/19 02:04:11;;;;;;;5.50;4.62;;;;;;;-0.45;72.49;98810.55;1746982;80;21004;-54
2021/03/19 02:07:36;;;;;;;4.87;4.12;;;;;;;-0.50;72.69;98812.69;1750991;80;21578;-55
2021/03/19 02:11:00;;;;;;;8.38;5.03;;;;;;;-0.52;72.88;98811.95;1743587;81;21385;-55
2021/03/19 02:14:24;;;;;;;5.83;4.22;;;;;;;-0.56;72.99;98813.15;1758282;80;21158;-54
2021/03/19 02:17:48;;;;;;;8.15;5.60;;;;;;;-0.60;73.12;98814.81;1731943;81;20950;-56
2021/03/19 02:21:13;;;;;;;10.38;6.15;;;;;;;-0.69;73.42;98817.17;1747804;80;21132;-54
2021/03/19 02:24:36;;;;;;;14.65;8.83;;;;;;;-0.71;73.69;98812.55;1748236;81;21073;-55
2021/03/19 02:28:00;;;;;;;21.55;9.93;;;;;;;-0.74;73.90;98817.16;1760838;80;21477;-55
2021/03/19 02:31:11;;;;;;;18.95;9.78;;;;;;;-0.76;74.10;98822.98;1723055;82;21037;-55
2021/03/19 02:33:57;;;;;;;21.42;10.08;;;;;;;-0.77;74.29;98822.61;1766525;80;21124;-56
2021/03/19 02:36:28;;;;;;;23.40;11.33;;;;;;;-0.78;74.37;98826.16;1754304;80;21132;-55
2021/03/19 02:38:55;;;;;;;16.60;10.18;;;;;;;-0.81;74.47;98826.41;1765199;81;21172;-55
2021/03/19 02:41:23;;;;;;;22.98;11.12;;;;;;;-0.83;74.55;98825.67;1771257;80;21358;-54
2021/03/19 02:43:51;;;;;;;23.52;11.50;;;;;;;-0.85;74.64;98828.41;1762472;81;20993;-55
2021/03/19 02:46:18;;;;;;;25.12;11.97;;;;;;;-0.89;74.65;98833.98;1768566;80;20965;-53
2021/03/19 02:48:46;;;;;;;17.77;10.28;;;;;;;-0.94;74.91;98829.08;1764667;80;21246;-55
2021/03/19 02:51:14;;;;;;;17.80;9.95;;;;;;;-0.96;75.21;98834.05;1780092;80;21107;-55
2021/03/19 02:53:42;;;;;;;14.38;8.13;;;;;;;-1.01;75.33;98830.48;1732744;81;21900;-56
2021/03/19 02:56:10;;;;;;;13.55;7.58;;;;;;;-1.05;75.54;98829.53;1724817;82;21159;-56
2021/03/19 02:58:37;;;;;;;15.23;7.95;;;;;;;-1.08;75.69;98829.75;1721798;83;21172;-56
2021/03/19 03:01:05;;;;;;;13.50;8.10;;;;;;;-1.11;75.95;98833.42;1719773;83;21160;-56
2021/03/19 03:03:33;;;;;;;15.80;8.85;;;;;;;-1.13;76.19;98827.49;1716076;82;21180;-56
2021/03/19 03:06:01;;;;;;;13.72;7.58;;;;;;;-1.15;76.17;98826.78;1717913;83;21384;-54
2021/03/19 03:08:29;;;;;;;11.12;6.67;;;;;;;-1.18;76.16;98827.47;1725069;82;21135;-55
2021/03/19 03:10:59;;;;;;;12.00;7.15;;;;;;;-1.25;76.22;98825.30;1742615;81;21021;-55
2021/03/19 03:13:26;;;;;;;9.93;5.80;;;;;;;-1.31;76.42;98824.92;1741442;81;21029;-56
2021/03/19 03:15:55;;;;;;;9.48;6.83;;;;;;;-1.36;76.78;98826.58;1724393;83;21151;-55
2021/03/19 03:18:23;;;;;;;10.48;7.15;;;;;;;-1.35;77.00;98829.98;1719933;81;21337;-55
2021/03/19 03:20:57;;;;;;;13.22;8.30;;;;;;;-1.36;77.04;98828.34;1719406;81;20926;-55
2021/03/19 03:23:26;;;;;;;14.78;9.35;;;;;;;-1.35;77.27;98830.83;1719406;82;21073;-55
2021/03/19 03:25:55;;;;;;;13.20;7.90;;;;;;;-1.31;77.39;98826.23;1714202;82;21268;-55
2021/03/19 03:28:25;;;;;;;13.70;8.43;;;;;;;-1.31;77.38;98827.07;1714611;83;21027;-55
2021/03/19 03:30:57;;;;;;;13.83;9.03;;;;;;;-1.33;77.39;98830.73;1719357;83;21381;-56
2021/03/19 03:33:25;;;;;;;15.32;8.43;;;;;;;-1.35;77.58;98828.22;1719464;83;20948;-54
2021/03/19 03:35:53;;;;;;;25.12;12.13;;;;;;;-1.33;77.59;98835.95;1720602;83;21099;-54
2021/03/19 03:38:23;;;;;;;18.15;10.60;;;;;;;-1.40;77.61;98827.72;1687610;81;21110;-55
2021/03/19 03:41:02;;;;;;;20.52;11.25;;;;;;;-1.39;77.83;98829.87;1681763;85;21131;-55
2021/03/19 03:43:29;;;;;;;15.88;10.03;;;;;;;-1.39;77.89;98828.09;1681516;84;21393;-56
2021/03/19 03:45:58;;;;;;;15.10;8.90;;;;;;;-1.40;78.00;98823.81;1683917;84;21208;-54
2021/03/19 03:48:28;;;;;;;22.67;10.58;;;;;;;-1.40;78.16;98828.19;1694411;83;21186;-56
2021/03/19 03:50:57;;;;;;;16.65;8.65;;;;;;;-1.40;78.15;98829.49;1685856;85;21979;-56
2021/03/19 03:53:24;;;;;;;17.25;9.45;;;;;;;-1.42;78.21;98821.80;1635240;87;21141;-56
2021/03/19 03:55:52;;;;;;;17.50;9.20;;;;;;;-1.43;78.23;98831.86;1665529;85;21223;-55
2021/03/19 03:58:19;;;;;;;16.10;8.35;;;;;;;-1.43;78.49;98831.02;1668595;84;21418;-55
2021/03/19 04:00:47;;;;;;;17.45;9.38;;;;;;;-1.42;78.69;98836.61;1666278;85;21174;-55
2021/03/19 04:03:15;;;;;;;20.23;10.70;;;;;;;-1.43;78.71;98834.47;1666670;85;21106;-55
2021/03/19 04:05:46;;;;;;;19.57;10.30;;;;;;;-1.45;78.77;98831.14;1666358;85;21131;-55
2021/03/19 04:08:18;;;;;;;20.80;9.68;;;;;;;-1.44;78.97;98840.64;1666160;85;21391;-55
2021/03/19 04:10:47;;;;;;;18.40;10.68;;;;;;;-1.43;79.14;98838.84;1666189;85;21063;-55
2021/03/19 04:13:15;;;;;;;16.45;9.50;;;;;;;-1.44;79.23;98839.34;1666519;86;21183;-55
2021/03/19 04:15:43;;;;;;;14.03;8.70;;;;;;;-1.44;79.36;98835.42;1667008;85;21323;-55
2021/03/19 04:18:13;;;;;;;16.42;10.03;;;;;;;-1.43;79.52;98840.98;1666419;85;21089;-56
2021/03/19 04:20:43;;;;;;;16.57;9.93;;;;;;;-1.44;79.50;98843.25;1666446;85;21226;-54
2021/03/19 04:23:12;;;;;;;16.42;10.23;;;;;;;-1.44;79.63;98843.25;1663404;85;21575;-55
2021/03/19 04:25:40;;;;;;;16.17;11.43;;;;;;;-1.44;79.82;98841.95;1666344;85;21178;-55
2021/03/19 04:28:12;;;;;;;17.65;9.75;;;;;;;-1.38;80.03;98844.09;1666302;85;21186;-55
2021/03/19 04:30:42;;;;;;;11.57;8.68;;;;;;;-1.33;80.02;98841.17;1666286;85;21157;-55
2021/03/19 04:33:19;;;;;;;17.57;11.10;;;;;;;-1.29;79.95;98837.38;1666397;86;21407;-55
2021/03/19 04:35:52;;;;;;;18.80;9.75;;;;;;;-1.31;79.73;98840.12;1666362;85;21055;-55
2021/03/19 04:38:19;;;;;;;15.83;9.50;;;;;;;-1.30;79.95;98841.77;1671245;84;21146;-55
2021/03/19 04:40:48;;;;;;;15.28;9.18;;;;;;;-1.29;79.80;98839.99;1682406;85;21138;-55
2021/03/19 04:43:16;;;;;;;11.25;8.98;;;;;;;-1.31;79.95;98840.58;1682458;85;21238;-55
2021/03/19 04:45:44;;;;;;;18.67;10.03;;;;;;;-1.27;80.27;98843.31;1682424;85;21425;-55
2021/03/19 04:48:12;;;;;;;15.28;8.38;;;;;;;-1.26;80.13;98846.30;1682448;85;21126;-55
2021/03/19 04:50:40;;;;;;;15.38;9.98;;;;;;;-1.23;80.22;98842.16;1682722;85;21134;-54
2021/03/19 04:53:08;;;;;;;12.60;8.38;;;;;;;-1.20;80.15;98843.25;1737551;82;21216;-55
2021/03/19 04:55:36;;;;;;;13.28;8.65;;;;;;;-1.14;80.06;98845.86;1740835;81;21199;-55
2021/03/19 04:58:03;;;;;;;12.13;8.60;;;;;;;-1.11;80.02;98850.86;1741690;82;21206;-55
2021/03/19 05:00:31;;;;;;;12.78;8.08;;;;;;;-1.07;79.91;98841.87;1707364;84;21628;-56
2021/03/19 05:02:58;;;;;;;13.15;8.95;;;;;;;-1.02;79.74;98844.98;1742968;81;21142;-56
2021/03/19 05:05:32;;;;;;;11.55;7.85;;;;;;;-1.00;79.70;98850.45;1707378;82;21056;-55
2021/03/19 05:08:01;;;;;;;11.88;8.53;;;;;;;-0.97;79.87;98844.16;1677371;84;21220;-56
2021/03/19 05:10:34;;;;;;;17.98;8.03;;;;;;;-0.92;79.68;98844.66;1694479;83;22243;-56
2021/03/19 05:13:01;;;;;;;11.97;8.30;;;;;;;-0.86;79.74;98840.29;1704356;84;21172;-56
2021/03/19 05:15:31;;;;;;;16.30;8.55;;;;;;;-0.79;79.78;98841.48;1685277;85;21120;-56
2021/03/19 05:18:00;;;;;;;13.78;9.80;;;;;;;-0.76;79.75;98837.34;1743003;80;21021;-56
2021/03/19 05:20:28;;;;;;;15.25;8.35;;;;;;;-0.68;79.78;98837.61;1707660;84;21156;-57
2021/03/19 05:22:56;;;;;;;16.25;10.72;;;;;;;-0.62;79.49;98843.19;1743095;82;21354;-57
2021/03/19 05:25:28;;;;;;;10.53;8.70;;;;;;;-0.57;79.27;98832.38;1742858;82;21140;-56
2021/03/19 05:27:59;;;;;;;13.65;9.53;;;;;;;-0.49;79.02;98835.71;1706125;84;21123;-55
2021/03/19 05:30:27;;;;;;;10.90;8.25;;;;;;;-0.47;78.63;98835.95;1707470;84;21141;-55
2021/03/19 05:32:55;;;;;;;13.80;8.33;;;;;;;-0.43;78.62;98838.70;1743021;81;21116;-56
2021/03/19 05:35:23;;;;;;;13.85;8.65;;;;;;;-0.37;78.49;98838.25;1706974;82;21367;-54
2021/03/19 05:37:51;;;;;;;13.15;9.73;;;;;;;-0.29;78.21;98842.88;1710814;83;21124;-58
2021/03/19 05:40:40;;;;;;;14.65;9.85;;;;;;;-0.24;78.01;98838.97;1752919;81;21041;-56
2021/03/19 05:43:31;;;;;;;20.92;11.25;;;;;;;-0.19;77.74;98849.06;1753538;80;21562;-56
2021/03/19 05:46:06;;;;;;;14.53;9.35;;;;;;;-0.14;77.71;98846.92;1753223;80;21576;-56
2021/03/19 05:49:00;;;;;;;17.45;11.83;;;;;;;-0.08;77.69;98855.11;1748717;81;21478;-56
2021/03/19 05:51:47;;;;;;;15.28;10.05;;;;;;;0.03;77.69;98856.09;1753133;81;21598;-57
2021/03/19 05:54:32;;;;;;;17.00;10.23;;;;;;;0.15;77.50;98855.96;1749670;81;21043;-57
2021/03/19 05:57:08;;;;;;;17.42;10.40;;;;;;;0.22;77.04;98855.83;1753299;80;21134;-55
2021/03/19 05:59:48;;;;;;;16.50;10.75;;;;;;;0.33;77.03;98857.59;1739582;80;26572;-56
2021/03/19 06:02:20;;;;;;;15.10;9.50;;;;;;;0.43;76.82;98859.84;1751757;80;22359;-56
2021/03/19 06:05:15;;;;;;;11.85;9.20;;;;;;;0.52;76.67;98857.81;1724899;81;21018;-57
2021/03/19 06:07:54;;;;;;;13.95;8.90;;;;;;;0.63;76.22;98856.45;1729900;82;21018;-60
2021/03/19 06:10:28;;;;;;;12.25;9.50;;;;;;;0.76;75.84;98855.82;1751450;80;21018;-56
2021/03/19 06:13:20;;;;;;;15.08;9.70;;;;;;;0.86;75.40;98857.23;1757572;80;21011;-56
2021/03/19 06:15:55;;;;;;;17.52;10.40;;;;;;;0.98;75.12;98860.16;1750572;81;21196;-57
2021/03/19 06:18:28;;;;;;;15.65;9.53;;;;;;;1.06;74.49;98859.05;1719928;81;21012;-57
2021/03/19 06:21:12;;;;;;;14.63;9.10;;;;;;;1.10;74.36;98867.84;1753639;80;21063;-57
2021/03/19 06:23:43;;;;;;;13.98;9.25;;;;;;;1.20;74.25;98870.05;1753583;80;21024;-56
2021/03/19 06:26:25;;;;;;;12.80;8.55;;;;;;;1.30;73.63;98869.31;1753732;81;21498;-57
2021/03/19 06:29:05;;;;;;;11.65;8.40;;;;;;;1.36;73.57;98864.38;1753596;81;21334;-58
2021/03/19 06:31:33;;;;;;;12.85;8.38;;;;;;;1.46;73.16;98867.08;1753394;80;21170;-57
2021/03/19 06:34:22;;;;;;;9.40;8.13;;;;;;;1.54;73.03;98864.16;1749869;81;21071;-57
2021/03/19 06:36:58;;;;;;;20.35;9.98;;;;;;;1.64;72.76;98868.16;1753444;80;21016;-57
2021/03/19 06:39:45;;;;;;;26.97;15.35;;;;;;;1.77;72.47;98870.91;1768218;80;21178;-57
2021/03/19 06:42:21;;;;;;;16.17;9.73;;;;;;;2.12;72.72;98868.39;1769314;81;21361;-56
2021/03/19 06:45:18;;;;;;;15.93;10.40;;;;;;;2.70;71.99;98870.23;1769490;81;21033;-57
2021/03/19 06:47:53;;;;;;;23.12;12.10;;;;;;;3.24;69.90;98872.83;1769388;81;21026;-57
2021/03/19 06:50:30;;;;;;;20.08;11.97;;;;;;;3.86;68.60;98863.14;1759176;81;21514;-57
2021/03/19 06:53:20;;;;;;;17.50;11.78;;;;;;;4.53;66.51;98862.37;1755770;81;21127;-56
2021/03/19 06:55:58;;;;;;;25.23;12.53;;;;;;;5.17;65.62;98856.09;1763931;80;22277;-57
2021/03/19 06:58:40;;;;;;;29.07;13.03;;;;;;;5.87;63.20;98852.53;1749617;81;21245;-56
2021/03/19 07:01:33;;;;;;;27.20;15.78;;;;;;;6.54;61.81;98856.53;1759382;81;21068;-60
2021/03/19 07:04:25;;;;;;;26.80;15.95;;;;;;;7.20;58.83;98853.86;1768315;80;21128;-57
2021/03/19 07:07:19;;;;;;;34.20;16.17;;;;;;;7.70;57.34;98858.16;1769156;81;21570;-56
2021/03/19 07:09:55;;;;;;;22.62;13.48;;;;;;;8.10;55.39;98848.83;1764234;81;21372;-58
2021/03/19 07:12:50;;;;;;;17.45;13.18;;;;;;;8.47;53.92;98845.59;1767162;81;21116;-57
2021/03/19 07:15:40;;;;;;;29.72;16.70;;;;;;;8.64;52.82;98851.14;1767094;81;21156;-58
2021/03/19 07:18:44;;;;;;;22.70;12.80;;;;;;;8.71;51.79;98853.94;1759179;81;21144;-58
2021/03/19 07:21:48;;;;;;;21.77;12.55;;;;;;;8.62;51.62;98852.65;1756229;81;21187;-58
2021/03/19 07:24:35;;;;;;;13.20;8.48;;;;;;;8.57;51.30;98860.79;1767294;81;21559;-62
2021/03/19 07:27:26;;;;;;;7.92;7.12;;;;;;;8.45;49.96;98859.00;1719457;82;21176;-60
2021/03/19 07:30:12;;;;;;;;;;;;;;;8.28;49.74;98861.89;1752218;79;22149;-63
2021/03/19 07:32:52;;;;;;;6.62;4.87;;;;;;;7.99;49.13;98870.37;1720873;80;23802;-58
2021/03/19 07:35:46;;;;;;;6.22;5.62;;;;;;;7.77;49.37;98872.41;1726242;82;21299;-57
2021/03/19 07:38:28;;;;;;;7.87;7.08;;;;;;;7.42;49.30;98874.88;1714771;82;20978;-60
2021/03/19 07:41:19;;;;;;;9.33;7.20;;;;;;;7.02;50.61;98882.75;1725018;82;20966;-59
2021/03/19 07:44:21;;;;;;;7.08;6.03;;;;;;;6.78;51.78;98884.83;1686081;85;21025;-58
2021/03/19 07:47:08;;;;;;;6.00;5.28;;;;;;;6.81;51.97;98877.91;1680947;84;21597;-62
2021/03/19 07:50:04;;;;;;;7.25;5.20;;;;;;;6.70;51.64;98878.23;1679551;84;21454;-59
2021/03/19 07:53:07;;;;;;;8.03;5.72;;;;;;;6.58;51.70;98876.35;1683275;84;21019;-58
2021/03/19 07:56:00;;;;;;;8.33;6.40;;;;;;;6.52;52.25;98874.83;1685986;84;21065;-58
2021/03/19 07:58:45;;;;;;;7.72;6.92;;;;;;;6.44;52.29;98874.30;1706683;84;21419;-59
2021/03/19 08:01:44;;;;;;;5.50;5.00;;;;;;;6.29;52.64;98872.41;1689354;84;21183;-61
2021/03/19 08:04:30;;;;;;;7.33;6.17;;;;;;;6.22;52.57;98872.23;1683751;84;21231;-58
2021/03/19 08:07:14;;;;;;;9.68;6.00;;;;;;;6.33;52.45;98869.32;1696796;84;21087;-58
2021/03/19 08:09:53;;;;;;;6.37;5.67;;;;;;;6.36;52.49;98866.85;1681036;84;20994;-59
2021/03/19 08:12:37;;;;;;;5.78;4.87;;;;;;;6.55;52.71;98869.22;1694773;84;21605;-58
2021/03/19 08:15:23;;;;;;;6.42;5.65;;;;;;;6.80;51.65;98865.70;1680149;84;21143;-58
2021/03/19 08:17:59;;;;;;;6.55;5.50;;;;;;;6.80;51.54;98869.66;1685445;82;21214;-59
2021/03/19 08:20:33;;;;;;;;;;;;;;;6.89;51.38;98863.88;1682240;84;21584;-66
2021/03/19 08:23:13;;;;;;;7.45;5.90;;;;;;;6.96;51.14;98864.91;1680271;84;20243;-63
2021/03/19 08:25:46;;;;;;;7.87;6.10;;;;;;;7.00;51.13;98864.91;1682891;84;21779;-56
2021/03/19 08:28:30;;;;;;;6.62;5.33;;;;;;;7.05;51.08;98870.04;1664122;85;21056;-58
2021/03/19 08:31:43;;;;;;;4.60;4.00;;;;;;;7.15;50.83;98865.91;1720464;82;21215;-59
2021/03/19 08:34:17;;;;;;;5.15;3.70;;;;;;;7.28;49.69;98863.13;1721141;82;21219;-57
2021/03/19 08:36:50;;;;;;;8.38;4.30;;;;;;;7.64;47.80;98864.94;1688584;82;21100;-59
2021/03/19 08:39:44;;;;;;;5.67;4.35;;;;;;;7.90;47.62;98858.16;1706032;82;21017;-57
2021/03/19 08:42:17;;;;;;;5.30;4.80;;;;;;;8.18;47.98;98851.95;1705715;82;21195;-56
2021/03/19 08:44:46;;;;;;;5.97;4.30;;;;;;;8.64;46.50;98861.25;1708457;82;21404;-60
2021/03/19 08:47:38;;;;;;;5.03;4.55;;;;;;;8.87;46.47;98855.98;1709984;82;21125;-57
2021/03/19 08:50:35;;;;;;;8.28;4.20;;;;;;;9.01;45.58;98853.09;1705766;82;21211;-58
2021/03/19 08:53:23;;;;;;;5.70;4.65;;;;;;;8.97;45.57;98858.44;1706566;82;21602;-58
2021/03/19 08:56:08;;;;;;;5.05;4.47;;;;;;;9.01;45.48;98849.11;1711382;82;21037;-57
2021/03/19 08:58:51;;;;;;;10.43;5.58;;;;;;;8.97;44.46;98855.78;1734077;82;22266;-58
2021/03/19 09:01:52;;;;;;;6.85;6.15;;;;;;;8.61;44.46;98865.56;1723919;82;21030;-58
2021/03/19 09:05:01;;;;;;;5.45;4.95;;;;;;;8.49;45.30;98868.77;1687577;82;21629;-57
2021/03/19 09:07:36;;;;;;;5.45;4.95;;;;;;;8.37;45.19;98869.63;1713577;82;21097;-58
2021/03/19 09:10:22;;;;;;;5.00;4.50;;;;;;;8.17;45.57;98865.69;1714723;82;21097;-60
2021/03/19 09:13:08;;;;;;;6.22;4.67;;;;;;;8.07;45.73;98864.56;1708329;82;21341;-60
2021/03/19 09:15:34;;;;;;;5.33;4.83;;;;;;;7.93;46.10;98860.44;1715157;82;21184;-57
2021/03/19 09:18:13;;;;;;;6.60;5.03;;;;;;;7.68;45.74;98861.48;1707058;82;21189;-58
2021/03/19 09:21:07;;;;;;;5.33;3.65;;;;;;;7.38;46.25;98870.89;1706669;82;21112;-59
2021/03/19 09:24:04;;;;;;;6.03;5.30;;;;;;;7.19;46.73;98869.41;1706323;82;21113;-57
2021/03/19 09:26:37;;;;;;;6.12;4.97;;;;;;;6.97;47.42;98863.41;1709825;82;21362;-58
2021/03/19 09:29:19;;;;;;;5.33;4.83;;;;;;;6.87;47.56;98859.25;1707801;82;21180;-58
2021/03/19 09:31:55;;;;;;;7.87;6.22;;;;;;;6.84;47.96;98863.05;1716083;82;21010;-58
2021/03/19 09:34:43;;;;;;;9.58;5.03;;;;;;;6.81;47.80;98866.01;1713671;82;26767;-59
2021/03/19 09:37:41;;;;;;;8.35;6.70;;;;;;;6.83;48.00;98866.67;1791242;78;27878;-58
2021/03/19 09:40:14;;;;;;;13.35;5.85;;;;;;;6.91;47.95;98862.73;1735214;82;21109;-58
2021/03/19 09:42:51;;;;;;;6.47;5.47;;;;;;;7.03;46.91;98869.38;1690135;82;22304;-65
2021/03/19 09:45:26;;;;;;;9.60;5.30;;;;;;;6.97;46.92;98869.19;1716655;82;20950;-59
2021/03/19 09:48:12;;;;;;;8.20;4.70;;;;;;;6.90;47.10;98867.70;1720068;82;20994;-58
2021/03/19 09:50:54;;;;;;;5.58;4.25;;;;;;;6.92;47.22;98868.84;1751702;79;21214;-60
2021/03/19 09:53:35;;;;;;;4.42;4.00;;;;;;;6.95;47.17;98870.69;1719082;80;21001;-58
2021/03/19 09:56:16;;;;;;;9.05;5.40;;;;;;;7.12;47.64;98872.36;1743861;82;21411;-61
2021/03/19 09:58:50;;;;;;;8.45;5.55;;;;;;;7.45;46.79;98877.20;1748138;80;21277;-58
2021/03/19 10:01:33;;;;;;;7.62;4.92;;;;;;;7.65;46.08;98870.58;1724789;80;21001;-58
2021/03/19 10:04:04;;;;;;;6.87;5.55;;;;;;;7.79;45.49;98872.56;1729861;82;21143;-58
2021/03/19 10:06:42;;;;;;;6.33;4.70;;;;;;;7.80;45.04;98870.72;1756335;81;21210;-60
2021/03/19 10:09:20;;;;;;;9.55;5.25;;;;;;;7.76;44.96;98873.38;1721813;82;22356;-59
2021/03/19 10:12:01;;;;;;;6.40;5.28;;;;;;;7.65;44.78;98870.58;1734656;82;21611;-58
2021/03/19 10:14:38;;;;;;;7.62;6.05;;;;;;;7.46;44.72;98876.19;1767335;81;21537;-58
2021/03/19 10:17:14;;;;;;;10.25;6.72;;;;;;;7.23;44.94;98880.48;1753708;81;21494;-58
2021/03/19 10:19:44;;;;;;;;;;;;;;;7.05;45.33;98876.66;1732112;81;21577;-59
2021/03/19 10:22:14;;;;;;;8.38;7.50;;;;;;;6.90;45.89;98878.28;1730268;81;21355;-58
2021/03/19 10:24:41;;;;;;;6.08;5.30;;;;;;;6.73;45.34;98878.71;1708788;81;21032;-59
2021/03/19 10:27:13;;;;;;;10.08;3.90;;;;;;;6.50;44.92;98872.84;1739892;81;21158;-58
2021/03/19 10:29:43;;;;;;;5.00;4.15;;;;;;;6.34;45.42;98874.92;1739920;81;21562;-57
2021/03/19 10:32:16;;;;;;;5.03;4.05;;;;;;;6.20;45.88;98872.88;1714228;82;21575;-59
2021/03/19 10:35:02;;;;;;;5.00;4.37;;;;;;;6.10;45.98;98876.94;1714187;82;22142;-59
2021/03/19 10:37:40;;;;;;;4.93;3.57;;;;;;;6.03;46.42;98873.27;1743141;81;21087;-60
2021/03/19 10:40:21;;;;;;;4.40;3.52;;;;;;;6.02;46.11;98875.56;1727610;80;21001;-59
2021/03/19 10:43:15;;;;;;;5.37;3.45;;;;;;;5.92;45.48;98877.97;1722564;82;21142;-58
2021/03/19 10:46:00;;;;;;;8.75;3.25;;;;;;;5.74;45.05;98871.39;1762370;79;21120;-58
2021/03/19 10:48:48;;;;;;;5.03;3.47;;;;;;;5.58;44.67;98874.74;1762774;79;21195;-58
2021/03/19 10:51:49;;;;;;;4.30;3.55;;;;;;;5.47;44.73;98872.85;1765520;79;20974;-60
2021/03/19 10:54:27;;;;;;;9.23;4.80;;;;;;;5.40;45.26;98871.78;1747487;79;21009;-59
2021/03/19 10:56:57;;;;;;;5.42;4.35;;;;;;;5.32;45.79;98875.70;1778757;79;21141;-58
2021/03/19 10:59:33;;;;;;;6.10;3.90;;;;;;;5.25;46.43;98873.31;1761324;79;21139;-59
2021/03/19 11:02:16;;;;;;;;;;;;;;;5.19;46.94;98871.30;1765714;79;22700;-59
2021/03/19 11:04:59;;;;;;;10.25;3.47;;;;;;;5.17;47.13;98871.91;1776946;80;20609;-57
2021/03/19 11:07:34;;;;;;;5.70;3.40;;;;;;;5.12;47.31;98874.17;1756634;79;21127;-59
2021/03/19 11:10:38;;;;;;;5.75;3.33;;;;;;;5.05;47.04;98870.48;1747253;79;26507;-60
2021/03/19 11:13:16;;;;;;;4.70;3.45;;;;;;;4.90;47.19;98872.31;1754983;79;21118;-59
2021/03/19 11:15:45;;;;;;;5.85;3.35;;;;;;;4.73;47.37;98884.98;1797131;79;21351;-59
2021/03/19 11:18:19;;;;;;;8.75;3.55;;;;;;;4.62;47.72;98881.23;1755156;79;21551;-58
2021/03/19 11:21:12;;;;;;;5.80;3.58;;;;;;;4.55;47.79;98875.38;1775221;78;21120;-58
2021/03/19 11:23:49;;;;;;;3.62;2.83;;;;;;;4.49;47.89;98874.16;1753225;79;21116;-59
2021/03/19 11:26:29;;;;;;;4.30;3.45;;;;;;;4.49;47.62;98870.69;1786139;79;21132;-58
2021/03/19 11:29:17;;;;;;;9.93;6.75;;;;;;;4.48;46.99;98873.00;1759152;79;21434;-59
2021/03/19 11:32:07;;;;;;;11.20;7.90;;;;;;;4.44;45.96;98871.13;1783913;79;21199;-58
2021/03/19 11:34:44;;;;;;;6.22;4.65;;;;;;;4.44;45.49;98871.61;1782302;80;21565;-59
2021/03/19 11:37:25;;;;;;;3.10;2.77;;;;;;;4.47;45.27;98868.69;1784460;79;21060;-58
2021/03/19 11:40:16;;;;;;;8.00;2.70;;;;;;;4.49;44.74;98870.20;1759085;79;21210;-58
2021/03/19 11:42:55;;;;;;;3.42;2.50;;;;;;;4.53;44.47;98868.12;1765404;79;21382;-60
2021/03/19 11:45:27;;;;;;;6.17;5.03;;;;;;;4.52;44.07;98865.13;1765559;79;21112;-59
2021/03/19 11:48:07;;;;;;;8.23;6.35;;;;;;;4.51;44.24;98866.13;1770083;78;21061;-58
2021/03/19 11:50:39;;;;;;;5.30;3.90;;;;;;;4.53;44.09;98873.38;1790821;78;21040;-60
2021/03/19 11:53:13;;;;;;;7.30;5.40;;;;;;;4.49;44.35;98878.59;1747033;79;21448;-60
2021/03/19 11:55:49;;;;;;;7.67;5.40;;;;;;;4.36;45.06;98883.72;1762879;79;21186;-57
2021/03/19 11:58:19;;;;;;;9.38;6.70;;;;;;;4.27;46.77;98885.09;1765479;80;21144;-58
2021/03/19 12:00:46;;;;;;;7.47;5.37;;;;;;;4.15;48.38;98878.32;1756684;79;21151;-58
2021/03/19 12:03:28;;;;;;;7.10;4.90;;;;;;;4.04;49.45;98888.54;1775304;78;21044;-59
2021/03/19 12:05:56;;;;;;;6.05;4.83;;;;;;;3.93;49.91;98886.10;1760976;78;21124;-60
2021/03/19 12:08:26;;;;;;;5.75;4.67;;;;;;;3.79;50.37;98891.80;1798928;78;21268;-58
2021/03/19 12:10:55;;;;;;;7.40;4.62;;;;;;;3.70;50.87;98892.16;1763117;79;21164;-57
2021/03/19 12:13:23;;;;;;;9.28;4.65;;;;;;;3.61;50.81;98893.02;1758513;79;21126;-59
2021/03/19 12:15:50;;;;;;;6.72;3.85;;;;;;;3.47;51.66;98897.38;1796030;79;21164;-59
2021/03/19 12:18:21;;;;;;;7.03;3.65;;;;;;;3.38;51.51;98892.97;1771335;78;21113;-59
2021/03/19 12:20:49;;;;;;;10.05;4.62;;;;;;;3.30;51.32;98893.31;1765564;79;22245;-58
2021/03/19 12:23:16;;;;;;;8.78;5.45;;;;;;;3.26;51.63;98899.31;1791081;79;21017;-57
2021/03/19 12:25:45;;;;;;;7.60;5.60;;;;;;;3.27;51.77;98896.21;1797023;79;20926;-60